Time;durP1;ratioP1;P1;durP2;ratioP2;P2;SDS_P1;SDS_P2;PMS_P1;PMS_P2;Temp;Humidity;BMP_temperature;BMP_pressure;BME280_temperature;BME280_humidity;BME280_pressure;Samples;Min_cycle;Max_cycle;Signal;HPM_P1;HPM_P2
2022/02/04 00:21:09;;;;;;;15.80;3.00;;;;;;;;;;4961496;28;20058;-52
2022/02/04 00:23:36;;;;;;;7.78;2.22;;;;;;;;;;4961691;28;20129;-51
2022/02/04 00:26:49;;;;;;;3.58;1.27;;;;;;;;;;4961459;28;20039;-47
2022/02/04 00:32:20;;;;;;;19.75;2.40;;;;;;;;;;4963939;28;20118;-52
2022/02/04 00:34:15;;;;;;;15.10;2.50;;;;;;;;;;4972200;28;20053;-49
2022/02/04 00:36:44;;;;;;;22.38;3.00;;;;;;;;;;4966762;28;20041;-47
2022/02/04 00:39:15;;;;;;;16.40;2.13;;;;;;;;;;4989207;28;20062;-48
2022/02/04 00:41:43;;;;;;;18.80;2.00;;;;;;;;;;4959957;28;20046;-49
2022/02/04 00:44:17;;;;;;;15.85;2.28;;;;;;;;;;4965616;28;20276;-49
2022/02/04 00:46:57;;;;;;;16.15;2.42;;;;;;;;;;4960513;28;20041;-47
2022/02/04 01:27:14;;;;;;;18.15;1.95;;;;;;;;;;4966849;28;20533;-53
2022/02/04 01:29:53;;;;;;;21.23;2.33;;;;;;;;;;4962173;28;20046;-52
2022/02/04 01:32:18;;;;;;;17.60;2.08;;;;;;;;;;4964583;28;20533;-53
2022/02/04 01:34:44;;;;;;;21.08;2.65;;;;;;;;;;4964264;28;20043;-53
2022/02/04 01:37:09;;;;;;;16.67;2.95;;;;;;;;;;4966591;28;20051;-52
2022/02/04 01:39:35;;;;;;;24.40;2.28;;;;;;;;;;4967618;28;20057;-52
2022/02/04 01:42:00;;;;;;;23.95;2.40;;;;;;;;;;4962933;28;20065;-52
2022/02/04 01:44:28;;;;;;;19.05;3.17;;;;;;;;;;4959066;28;20027;-54
2022/02/04 01:46:54;;;;;;;18.70;2.38;;;;;;;;;;4961196;28;20085;-48
2022/02/04 01:49:22;;;;;;;9.90;2.40;;;;;;;;;;4965645;28;20089;-53
2022/02/04 01:51:47;;;;;;;20.40;2.70;;;;;;;;;;4968531;28;20446;-49
2022/02/04 01:54:14;;;;;;;33.00;3.45;;;;;;;;;;4980213;28;20039;-49
2022/02/04 01:56:39;;;;;;;9.00;2.13;;;;;;;;;;4962484;28;20034;-51
2022/02/04 01:59:05;;;;;;;18.48;2.47;;;;;;;;;;4966990;28;20038;-52
2022/02/04 02:01:31;;;;;;;28.48;2.50;;;;;;;;;;4999090;28;20370;-52
2022/02/04 02:03:59;;;;;;;15.02;2.58;;;;;;;;;;4966814;28;20117;-49
2022/02/04 02:06:58;;;;;;;22.40;3.40;;;;;;;;;;4965299;28;20050;-53
2022/02/04 02:09:49;;;;;;;16.95;2.42;;;;;;;;;;4967783;28;20034;-49
2022/02/04 02:12:17;;;;;;;22.48;2.08;;;;;;;;;;4966743;28;20046;-52
2022/02/04 02:14:44;;;;;;;3.35;1.42;;;;;;;;;;4966750;28;20038;-51
2022/02/04 02:44:13;;;;;;;19.85;1.83;;;;;;;;;;4966877;28;20035;-51
2022/02/04 02:52:10;;;;;;;9.07;3.08;;;;;;;;;;4970599;28;20041;-50
2022/02/04 02:55:02;;;;;;;29.08;1.92;;;;;;;;;;4965616;28;20038;-48
2022/02/04 03:02:58;;;;;;;19.77;3.22;;;;;;;;;;4966814;28;20163;-51
2022/02/04 03:05:24;;;;;;;10.25;1.30;;;;;;;;;;4965589;28;20030;-48
2022/02/04 03:07:49;;;;;;;13.82;2.50;;;;;;;;;;4962046;28;20038;-50
2022/02/04 03:10:15;;;;;;;14.98;2.78;;;;;;;;;;4964640;28;20626;-51
2022/02/04 03:12:44;;;;;;;13.75;1.70;;;;;;;;;;4967271;28;20039;-52
2022/02/04 03:15:10;;;;;;;12.80;1.50;;;;;;;;;;4998951;28;20045;-50
2022/02/04 03:17:36;;;;;;;9.90;1.30;;;;;;;;;;4961072;28;20617;-50
2022/02/04 03:20:07;;;;;;;11.88;1.88;;;;;;;;;;4965361;28;20162;-52
2022/02/04 03:22:33;;;;;;;12.65;1.55;;;;;;;;;;4960208;28;20035;-50
2022/02/04 03:25:03;;;;;;;15.55;2.78;;;;;;;;;;4965790;28;20042;-52
2022/02/04 03:27:36;;;;;;;22.48;3.58;;;;;;;;;;4964337;28;20053;-52
2022/02/04 03:30:08;;;;;;;17.33;2.15;;;;;;;;;;4962977;28;20451;-48
2022/02/04 03:32:38;;;;;;;14.95;2.65;;;;;;;;;;4963011;28;20046;-49
2022/02/04 03:35:03;;;;;;;9.32;1.48;;;;;;;;;;4959222;28;20130;-51
2022/02/04 03:37:29;;;;;;;19.15;2.35;;;;;;;;;;4968787;28;20125;-51
2022/02/04 03:39:54;;;;;;;16.52;1.67;;;;;;;;;;4966955;28;20742;-52
2022/02/04 03:42:20;;;;;;;20.00;2.03;;;;;;;;;;4964445;28;20443;-51
2022/02/04 03:44:45;;;;;;;7.95;2.05;;;;;;;;;;4964867;28;20034;-53
2022/02/04 03:47:11;;;;;;;31.70;2.28;;;;;;;;;;4963513;28;20034;-52
2022/02/04 03:49:36;;;;;;;10.63;1.38;;;;;;;;;;4963505;28;20035;-50
2022/02/04 03:52:02;;;;;;;13.65;2.03;;;;;;;;;;4964311;28;20493;-52
2022/02/04 03:54:28;;;;;;;21.60;2.80;;;;;;;;;;4993860;28;20324;-53
2022/02/04 03:56:53;;;;;;;16.23;1.95;;;;;;;;;;4995153;28;20399;-49
2022/02/04 03:59:19;;;;;;;16.73;2.10;;;;;;;;;;4967970;28;20121;-51
2022/02/04 04:01:44;;;;;;;19.00;2.00;;;;;;;;;;4962125;28;20085;-49
2022/02/04 04:04:10;;;;;;;25.73;1.90;;;;;;;;;;4960981;28;20043;-53
2022/02/04 04:06:35;;;;;;;10.07;1.60;;;;;;;;;;4968317;28;20405;-48
2022/02/04 04:09:01;;;;;;;20.98;2.95;;;;;;;;;;4967192;28;20489;-49
2022/02/04 04:11:26;;;;;;;25.27;2.67;;;;;;;;;;4962236;28;20473;-52
2022/02/04 04:13:52;;;;;;;27.92;2.50;;;;;;;;;;4963150;28;20034;-53
2022/02/04 04:16:19;;;;;;;16.60;2.00;;;;;;;;;;4961209;28;20035;-52
2022/02/04 04:18:45;;;;;;;15.20;1.60;;;;;;;;;;4962446;28;20049;-52
2022/02/04 04:21:10;;;;;;;15.82;1.73;;;;;;;;;;4963328;28;20468;-50
2022/02/04 04:23:36;;;;;;;8.00;0.93;;;;;;;;;;4964871;28;20547;-52
2022/02/04 04:26:02;;;;;;;16.65;2.13;;;;;;;;;;4961324;28;20042;-50
2022/02/04 04:28:27;;;;;;;17.73;1.60;;;;;;;;;;4967714;28;20114;-48
2022/02/04 04:30:53;;;;;;;23.55;2.20;;;;;;;;;;4961409;28;20022;-48
2022/02/04 04:33:18;;;;;;;5.50;1.13;;;;;;;;;;4965134;28;20388;-47
2022/02/04 04:35:44;;;;;;;16.17;2.33;;;;;;;;;;4967894;28;20061;-47
2022/02/04 05:29:27;;;;;;;19.77;2.08;;;;;;;;;;4960980;28;20023;-50
2022/02/04 05:31:53;;;;;;;11.85;1.98;;;;;;;;;;4966441;28;20030;-51
2022/02/04 05:34:20;;;;;;;10.48;1.17;;;;;;;;;;4966166;28;20034;-47
2022/02/04 05:36:48;;;;;;;19.08;1.70;;;;;;;;;;4971955;28;20042;-47
2022/02/04 05:39:21;;;;;;;22.20;1.85;;;;;;;;;;4966197;28;20043;-48
2022/02/04 05:41:49;;;;;;;;;;;;;;;;;;4969746;28;20366;-47
2022/02/04 05:44:15;;;;;;;11.35;1.83;;;;;;;;;;4972658;28;19928;-47
2022/02/04 05:46:54;;;;;;;14.65;1.77;;;;;;;;;;4967183;28;20030;-46
2022/02/04 05:49:22;;;;;;;16.73;2.50;;;;;;;;;;4965171;28;20027;-46
2022/02/04 05:52:06;;;;;;;8.68;1.15;;;;;;;;;;4966182;28;20052;-45
2022/02/04 06:02:31;;;;;;;11.73;1.70;;;;;;;;;;4965425;28;20042;-46
2022/02/04 06:07:33;;;;;;;9.27;1.27;;;;;;;;;;4967407;28;20470;-49
2022/02/04 06:10:23;;;;;;;8.98;1.25;;;;;;;;;;4965220;28;20130;-48
2022/02/04 06:23:44;;;;;;;6.32;0.90;;;;;;;;;;4965092;28;20042;-53
2022/02/04 06:26:10;;;;;;;9.68;1.45;;;;;;;;;;4965419;28;20050;-46
2022/02/04 06:28:38;;;;;;;5.90;0.60;;;;;;;;;;4964078;28;20037;-51
2022/02/04 06:31:04;;;;;;;13.30;1.27;;;;;;;;;;4966767;28;20482;-51
2022/02/04 06:33:30;;;;;;;6.85;1.40;;;;;;;;;;4965255;28;20034;-47
2022/02/04 06:35:55;;;;;;;8.27;1.67;;;;;;;;;;4992163;28;20042;-46
2022/02/04 06:38:21;;;;;;;3.95;1.08;;;;;;;;;;4966114;28;20498;-47
2022/02/04 06:40:47;;;;;;;6.68;1.95;;;;;;;;;;4963890;28;20070;-51
2022/02/04 06:43:12;;;;;;;10.50;2.08;;;;;;;;;;4965112;28;20113;-52
2022/02/04 06:45:40;;;;;;;5.13;0.80;;;;;;;;;;4972173;28;20031;-49
2022/02/04 06:48:06;;;;;;;10.15;1.60;;;;;;;;;;4968788;28;20041;-49
2022/02/04 06:50:32;;;;;;;8.80;2.25;;;;;;;;;;4968085;28;20042;-50
2022/02/04 06:52:57;;;;;;;8.02;1.80;;;;;;;;;;4964888;28;20026;-50
2022/02/04 06:55:23;;;;;;;6.38;0.82;;;;;;;;;;4960730;28;20039;-57
2022/02/04 06:57:49;;;;;;;2.92;0.70;;;;;;;;;;4968401;28;20035;-47
2022/02/04 07:00:18;;;;;;;9.55;0.88;;;;;;;;;;4965068;28;20039;-51
2022/02/04 07:02:44;;;;;;;6.50;1.52;;;;;;;;;;4963538;28;20038;-48
2022/02/04 07:05:13;;;;;;;15.60;1.80;;;;;;;;;;4968241;28;20042;-50
2022/02/04 07:07:41;;;;;;;19.67;1.65;;;;;;;;;;4969990;28;20315;-49
2022/02/04 07:10:16;;;;;;;15.75;1.40;;;;;;;;;;4965003;28;20026;-50
2022/02/04 07:12:52;;;;;;;6.60;1.45;;;;;;;;;;4969600;28;20438;-51
2022/02/04 07:15:39;;;;;;;9.88;1.50;;;;;;;;;;4966569;28;20504;-46
2022/02/04 07:20:51;;;;;;;18.80;1.40;;;;;;;;;;4963925;28;20041;-51
2022/02/04 07:23:17;;;;;;;6.72;1.55;;;;;;;;;;4966558;28;20122;-50
2022/02/04 07:25:43;;;;;;;17.65;1.50;;;;;;;;;;4965900;28;20145;-52
2022/02/04 07:28:08;;;;;;;15.10;1.95;;;;;;;;;;4967742;28;20461;-50
2022/02/04 07:30:34;;;;;;;5.07;0.75;;;;;;;;;;4965096;28;20042;-51
2022/02/04 07:33:11;;;;;;;18.75;1.73;;;;;;;;;;4964511;28;20046;-50
2022/02/04 07:41:03;;;;;;;3.75;0.40;;;;;;;;;;4965109;28;20035;-48
2022/02/04 07:43:30;;;;;;;8.73;0.95;;;;;;;;;;4965603;28;20043;-47
2022/02/04 07:45:57;;;;;;;13.80;2.17;;;;;;;;;;4968588;28;20029;-51
2022/02/04 07:48:23;;;;;;;5.72;0.68;;;;;;;;;;4961227;28;20404;-47
2022/02/04 07:50:50;;;;;;;15.70;0.90;;;;;;;;;;4959218;28;20085;-46
2022/02/04 07:53:17;;;;;;;4.43;1.50;;;;;;;;;;4963145;28;20067;-47
2022/02/04 07:55:43;;;;;;;15.05;1.35;;;;;;;;;;4965544;28;20041;-47
2022/02/04 07:58:11;;;;;;;2.38;0.63;;;;;;;;;;4961961;28;20039;-47
2022/02/04 08:00:38;;;;;;;3.42;0.82;;;;;;;;;;4961345;28;20046;-46
2022/02/04 08:03:17;;;;;;;4.40;1.15;;;;;;;;;;4968912;28;20035;-46
2022/02/04 08:05:42;;;;;;;3.22;0.90;;;;;;;;;;4970879;28;20605;-48
2022/02/04 08:08:23;;;;;;;3.90;0.98;;;;;;;;;;4961703;28;20118;-48
2022/02/04 08:22:20;;;;;;;9.40;2.13;;;;;;;;;;4952629;28;20062;-50
2022/02/04 08:24:42;;;;;;;13.82;1.42;;;;;;;;;;4966225;28;20469;-50
2022/02/04 08:29:48;;;;;;;6.00;1.45;;;;;;;;;;4961499;28;20034;-49
2022/02/04 08:35:27;;;;;;;15.20;1.20;;;;;;;;;;4966089;28;20057;-47
2022/02/04 08:52:06;;;;;;;11.68;1.10;;;;;;;;;;4962788;28;20027;-48
2022/02/04 08:54:18;;;;;;;8.17;2.00;;;;;;;;;;4964628;28;20073;-47
2022/02/04 09:04:43;;;;;;;15.25;1.52;;;;;;;;;;4967602;28;20529;-53
2022/02/04 09:07:12;;;;;;;6.03;0.63;;;;;;;;;;4964302;28;20521;-48
2022/02/04 09:09:58;;;;;;;4.50;1.13;;;;;;;;;;4964413;28;20035;-50
2022/02/04 09:16:56;;;;;;;2.47;0.52;;;;;;;;;;4962988;28;20173;-48
2022/02/04 09:20:32;;;;;;;1.48;0.65;;;;;;;;;;4963425;28;20050;-51
2022/02/04 09:22:58;;;;;;;6.03;1.23;;;;;;;;;;4994413;28;20065;-51
2022/02/04 09:25:27;;;;;;;8.73;1.30;;;;;;;;;;4965859;28;20066;-52
2022/02/04 09:27:53;;;;;;;7.78;1.13;;;;;;;;;;4963768;28;20034;-52
2022/02/04 09:30:20;;;;;;;6.35;1.52;;;;;;;;;;4966156;28;20258;-51
2022/02/04 09:32:46;;;;;;;4.20;1.15;;;;;;;;;;4964071;28;20402;-52
2022/02/04 09:35:14;;;;;;;5.43;1.42;;;;;;;;;;4965657;28;20081;-49
2022/02/04 09:37:44;;;;;;;21.30;2.47;;;;;;;;;;4965229;28;20051;-47
2022/02/04 09:40:12;;;;;;;19.83;2.15;;;;;;;;;;4965703;28;20077;-49
2022/02/04 09:42:40;;;;;;;7.05;1.17;;;;;;;;;;4962831;28;20041;-47
2022/02/04 09:45:08;;;;;;;11.75;2.95;;;;;;;;;;4966815;28;20031;-46
2022/02/04 09:47:36;;;;;;;3.08;1.33;;;;;;;;;;4965161;28;20449;-50
2022/02/04 09:50:05;;;;;;;4.40;1.20;;;;;;;;;;4964860;28;20489;-47
2022/02/04 10:12:49;;;;;;;9.98;1.52;;;;;;;;;;4974818;28;20422;-49
2022/02/04 10:14:58;;;;;;;5.18;1.00;;;;;;;;;;4968485;28;20137;-48
2022/02/04 10:17:27;;;;;;;7.93;1.13;;;;;;;;;;4963825;28;20034;-47
2022/02/04 10:19:58;;;;;;;3.75;0.70;;;;;;;;;;4968781;28;20019;-50
2022/02/04 10:22:30;;;;;;;29.30;2.30;;;;;;;;;;4964887;28;20065;-47
2022/02/04 10:25:08;;;;;;;12.63;1.60;;;;;;;;;;4966646;28;20303;-50
2022/02/04 10:27:36;;;;;;;8.95;1.40;;;;;;;;;;4961410;28;20491;-53
2022/02/04 10:30:08;;;;;;;8.10;1.52;;;;;;;;;;4969874;28;20049;-48
2022/02/04 10:32:48;;;;;;;7.45;0.60;;;;;;;;;;4982821;28;20094;-48
2022/02/04 10:35:21;;;;;;;8.48;0.90;;;;;;;;;;4968665;28;20111;-49
2022/02/04 10:38:07;;;;;;;3.50;1.10;;;;;;;;;;4967842;28;20514;-51
2022/02/04 10:40:49;;;;;;;14.07;1.50;;;;;;;;;;4966699;28;20486;-48
2022/02/04 10:51:59;;;;;;;5.47;1.15;;;;;;;;;;4963741;28;20030;-50
2022/02/04 11:02:37;;;;;;;14.50;0.90;;;;;;;;;;4968191;28;20301;-49
2022/02/04 11:54:56;;;;;;;5.05;1.15;;;;;;;;;;4965858;28;20034;-49
2022/02/04 11:57:25;;;;;;;12.82;1.92;;;;;;;;;;4963994;28;20221;-49
2022/02/04 11:59:52;;;;;;;7.63;2.03;;;;;;;;;;4967009;28;20513;-49
2022/02/04 12:02:27;;;;;;;12.63;1.45;;;;;;;;;;4965540;28;20560;-49
2022/02/04 12:05:07;;;;;;;6.88;1.33;;;;;;;;;;4965725;28;20278;-52
2022/02/04 12:07:41;;;;;;;7.47;0.77;;;;;;;;;;4963611;28;20335;-47
2022/02/04 12:10:13;;;;;;;6.85;1.10;;;;;;;;;;4958828;28;20023;-49
2022/02/04 12:12:58;;;;;;;10.40;1.13;;;;;;;;;;4965254;28;20034;-47
2022/02/04 12:15:35;;;;;;;6.82;1.75;;;;;;;;;;4965323;28;20035;-49
2022/02/04 12:18:06;;;;;;;10.68;1.38;;;;;;;;;;4962949;28;20022;-52
2022/02/04 12:20:51;;;;;;;3.13;0.70;;;;;;;;;;4967426;28;20137;-51
2022/02/04 12:24:01;;;;;;;15.73;1.70;;;;;;;;;;4962371;28;20030;-51
2022/02/04 12:26:28;;;;;;;2.08;0.90;;;;;;;;;;4962276;28;20050;-51
2022/02/04 12:28:56;;;;;;;2.75;0.82;;;;;;;;;;4965421;28;20019;-51
2022/02/04 12:31:35;;;;;;;4.47;0.85;;;;;;;;;;4966625;28;20027;-48
2022/02/04 12:34:12;;;;;;;7.75;0.93;;;;;;;;;;4967126;28;20453;-49
2022/02/04 12:36:38;;;;;;;7.68;1.00;;;;;;;;;;4965191;28;20039;-47
2022/02/04 12:39:12;;;;;;;4.13;1.02;;;;;;;;;;4962924;28;20055;-48
2022/02/04 12:41:47;;;;;;;5.30;1.13;;;;;;;;;;4963985;28;20058;-47
2022/02/04 12:44:13;;;;;;;3.85;0.70;;;;;;;;;;4963875;28;20037;-49
2022/02/04 12:46:45;;;;;;;5.22;0.93;;;;;;;;;;4964503;28;20038;-49
2022/02/04 12:49:16;;;;;;;1.13;0.43;;;;;;;;;;4965960;28;20061;-51
2022/02/04 12:54:46;;;;;;;1.38;0.60;;;;;;;;;;4961393;28;20049;-48
2022/02/04 13:08:23;;;;;;;9.57;1.50;;;;;;;;;;4964927;28;20109;-47
2022/02/04 13:11:01;;;;;;;6.55;1.17;;;;;;;;;;4964403;28;20112;-47
2022/02/04 13:13:32;;;;;;;1.73;0.70;;;;;;;;;;4962310;28;20038;-48
2022/02/04 13:15:58;;;;;;;4.43;1.00;;;;;;;;;;4962049;28;20553;-47
2022/02/04 13:18:23;;;;;;;5.40;0.68;;;;;;;;;;4960866;28;20051;-52
2022/02/04 13:20:54;;;;;;;3.55;0.65;;;;;;;;;;4965436;28;20058;-52
2022/02/04 13:23:23;;;;;;;1.50;0.73;;;;;;;;;;4958527;28;20035;-50
2022/02/04 13:25:55;;;;;;;7.97;0.70;;;;;;;;;;4959713;28;20557;-50
2022/02/04 13:28:21;;;;;;;;;;;;;;;;;;4963978;28;20428;-52
2022/02/04 13:31:00;;;;;;;4.53;0.57;;;;;;;;;;4963089;28;20336;-53
2022/02/04 13:33:27;;;;;;;5.05;0.90;;;;;;;;;;4962047;28;20561;-53
2022/02/04 13:36:04;;;;;;;5.18;1.75;;;;;;;;;;4965988;28;20109;-52
2022/02/04 13:38:42;;;;;;;3.75;1.60;;;;;;;;;;4967492;28;20053;-51
2022/02/04 13:41:24;;;;;;;7.00;0.40;;;;;;;;;;4964783;28;20041;-47
2022/02/04 13:44:15;;;;;;;7.40;0.73;;;;;;;;;;4963033;28;20058;-49
2022/02/04 13:46:45;;;;;;;3.33;0.85;;;;;;;;;;4963389;28;20299;-48
2022/02/04 13:49:25;;;;;;;4.10;0.85;;;;;;;;;;4963136;28;20030;-51
2022/02/04 13:54:30;;;;;;;6.25;1.48;;;;;;;;;;4961741;28;20510;-49
2022/02/04 14:00:01;;;;;;;4.43;1.45;;;;;;;;;;4964190;28;20089;-49
2022/02/04 14:02:35;;;;;;;4.03;0.82;;;;;;;;;;4966716;28;20438;-50
2022/02/04 14:05:02;;;;;;;5.43;1.30;;;;;;;;;;4962885;28;20023;-50
2022/02/04 14:07:44;;;;;;;5.00;1.92;;;;;;;;;;4966853;28;20031;-48
2022/02/04 14:10:21;;;;;;;4.03;1.15;;;;;;;;;;4963211;28;20035;-51
2022/02/04 14:13:07;;;;;;;7.15;1.77;;;;;;;;;;4963416;28;20410;-47
2022/02/04 14:15:34;;;;;;;3.65;1.50;;;;;;;;;;4961603;28;20031;-52
2022/02/04 14:18:06;;;;;;;4.63;1.40;;;;;;;;;;4963646;28;20027;-52
2022/02/04 14:20:33;;;;;;;5.32;1.08;;;;;;;;;;4972309;28;20568;-49
2022/02/04 14:23:00;;;;;;;6.53;1.50;;;;;;;;;;4965419;28;20073;-52
2022/02/04 14:25:26;;;;;;;5.18;1.35;;;;;;;;;;4965866;28;20451;-49
2022/02/04 14:27:56;;;;;;;8.85;1.50;;;;;;;;;;4960382;28;20070;-47
2022/02/04 14:30:27;;;;;;;2.90;0.93;;;;;;;;;;4968898;28;20034;-52
2022/02/04 14:33:08;;;;;;;3.95;1.40;;;;;;;;;;4969414;28;20043;-50
2022/02/04 14:49:31;;;;;;;5.50;1.45;;;;;;;;;;4962334;28;20054;-46
2022/02/04 14:52:23;;;;;;;5.30;1.20;;;;;;;;;;4962189;28;20502;-50
2022/02/04 15:02:42;;;;;;;6.68;1.77;;;;;;;;;;4989673;28;20042;-51
2022/02/04 15:05:12;;;;;;;6.72;0.98;;;;;;;;;;4962908;28;20079;-50
2022/02/04 15:07:40;;;;;;;4.50;0.93;;;;;;;;;;4964522;28;20560;-51
2022/02/04 15:10:08;;;;;;;3.90;0.88;;;;;;;;;;4964667;28;20046;-50
2022/02/04 15:12:34;;;;;;;2.80;0.85;;;;;;;;;;4959679;28;20042;-51
2022/02/04 15:14:59;;;;;;;4.47;0.95;;;;;;;;;;5000492;28;20418;-53
2022/02/04 15:17:25;;;;;;;3.45;1.02;;;;;;;;;;4962679;28;20411;-52
2022/02/04 15:19:50;;;;;;;5.97;1.00;;;;;;;;;;4972284;28;20082;-52
2022/02/04 15:22:21;;;;;;;8.40;1.60;;;;;;;;;;4966102;28;20453;-53
2022/02/04 15:24:52;;;;;;;2.35;0.70;;;;;;;;;;4963531;28;20557;-50
2022/02/04 15:27:18;;;;;;;1.10;0.47;;;;;;;;;;4965860;28;20509;-51
2022/02/04 15:29:46;;;;;;;1.50;0.70;;;;;;;;;;4964583;28;20069;-53
2022/02/04 15:32:12;;;;;;;1.00;0.60;;;;;;;;;;4961988;28;20035;-53
2022/02/04 15:34:37;;;;;;;8.63;1.80;;;;;;;;;;4969071;28;20085;-50
2022/02/04 15:37:03;;;;;;;4.15;1.10;;;;;;;;;;4998852;28;20043;-52
2022/02/04 15:39:30;;;;;;;8.27;1.33;;;;;;;;;;4963468;28;20061;-52
2022/02/04 15:41:58;;;;;;;5.35;1.58;;;;;;;;;;4959802;28;20030;-52
2022/02/04 15:49:45;;;;;;;3.65;1.13;;;;;;;;;;4959209;28;20518;-46
2022/02/04 15:54:52;;;;;;;10.50;1.60;;;;;;;;;;4968320;28;20161;-50
2022/02/04 16:02:31;;;;;;;12.18;1.90;;;;;;;;;;4965966;28;20250;-48
2022/02/04 16:04:57;;;;;;;12.30;1.48;;;;;;;;;;4964457;28;20015;-48
2022/02/04 16:07:24;;;;;;;4.72;1.40;;;;;;;;;;4965490;28;20039;-48
2022/02/04 16:12:51;;;;;;;7.00;1.63;;;;;;;;;;4957657;28;20947;-48
2022/02/04 16:15:38;;;;;;;3.80;1.45;;;;;;;;;;4974287;28;20078;-52
2022/02/04 16:18:11;;;;;;;10.18;1.92;;;;;;;;;;4965324;28;20094;-51
2022/02/04 16:21:25;;;;;;;7.80;1.63;;;;;;;;;;4966607;28;20066;-51
2022/02/04 16:23:30;;;;;;;5.60;1.27;;;;;;;;;;4965702;28;20121;-49
2022/02/04 16:28:41;;;;;;;6.57;1.33;;;;;;;;;;4964928;28;20520;-49
2022/02/04 16:31:09;;;;;;;17.25;1.90;;;;;;;;;;4963907;28;20035;-50
2022/02/04 16:33:35;;;;;;;8.18;0.88;;;;;;;;;;4965458;28;20027;-48
2022/02/04 16:36:08;;;;;;;6.38;1.70;;;;;;;;;;4966146;28;20486;-51
2022/02/04 16:38:33;;;;;;;3.50;1.50;;;;;;;;;;4965010;28;20043;-50
2022/02/04 16:41:08;;;;;;;3.92;1.50;;;;;;;;;;4966652;28;20293;-52
2022/02/04 16:43:35;;;;;;;6.13;1.60;;;;;;;;;;4961065;28;20030;-46
2022/02/04 16:46:05;;;;;;;2.17;1.08;;;;;;;;;;4962982;28;20027;-51
2022/02/04 16:48:31;;;;;;;4.38;1.77;;;;;;;;;;4963743;28;20031;-47
2022/02/04 16:50:57;;;;;;;1.85;1.20;;;;;;;;;;4964412;28;20394;-47
2022/02/04 16:53:22;;;;;;;6.82;1.75;;;;;;;;;;4961983;28;20037;-47
2022/02/04 16:55:47;;;;;;;4.13;1.40;;;;;;;;;;4963016;28;20043;-48
2022/02/04 16:58:13;;;;;;;5.22;1.48;;;;;;;;;;4962079;28;20509;-49
2022/02/04 17:00:38;;;;;;;3.08;1.40;;;;;;;;;;4963603;28;20221;-50
2022/02/04 17:03:10;;;;;;;4.25;1.60;;;;;;;;;;4963496;28;20136;-48
2022/02/04 17:06:01;;;;;;;2.53;1.15;;;;;;;;;;4962244;28;20026;-48
2022/02/04 17:08:36;;;;;;;10.77;2.67;;;;;;;;;;4986818;28;20047;-50
2022/02/04 17:11:09;;;;;;;6.88;2.15;;;;;;;;;;4959178;28;20279;-48
2022/02/04 17:13:34;;;;;;;4.13;1.88;;;;;;;;;;4965162;28;20221;-51
2022/02/04 17:16:00;;;;;;;3.60;1.30;;;;;;;;;;4965518;28;20523;-48
2022/02/04 17:18:26;;;;;;;6.00;1.98;;;;;;;;;;4966320;28;20054;-50
2022/02/04 17:20:51;;;;;;;15.80;2.35;;;;;;;;;;4961107;28;20081;-49
2022/02/04 17:23:27;;;;;;;6.43;2.88;;;;;;;;;;4972971;28;20038;-48
2022/02/04 17:25:55;;;;;;;4.05;1.63;;;;;;;;;;4964603;28;20118;-51
2022/02/04 17:28:27;;;;;;;6.32;2.10;;;;;;;;;;4965630;28;20165;-51
2022/02/04 17:30:53;;;;;;;8.48;2.45;;;;;;;;;;4969098;28;20045;-52
2022/02/04 17:33:19;;;;;;;7.95;1.98;;;;;;;;;;4963371;28;20064;-50
2022/02/04 17:35:45;;;;;;;11.45;2.30;;;;;;;;;;4963487;28;20027;-52
2022/02/04 17:38:12;;;;;;;8.30;1.63;;;;;;;;;;4964834;28;20069;-51
2022/02/04 17:40:37;;;;;;;5.25;2.17;;;;;;;;;;4964433;28;20074;-51
2022/02/04 17:43:03;;;;;;;11.13;2.13;;;;;;;;;;4967554;28;20450;-51
2022/02/04 17:45:29;;;;;;;8.27;1.90;;;;;;;;;;4962718;28;20049;-47
2022/02/04 17:48:04;;;;;;;8.15;3.22;;;;;;;;;;4957944;28;20345;-47
2022/02/04 17:50:34;;;;;;;7.85;2.55;;;;;;;;;;4963670;28;20462;-49
2022/02/04 17:53:06;;;;;;;4.65;2.08;;;;;;;;;;4961014;28;20130;-51
2022/02/04 17:55:41;;;;;;;5.30;2.38;;;;;;;;;;4964654;28;20054;-49
2022/02/04 18:08:24;;;;;;;7.55;2.95;;;;;;;;;;4964205;28;20046;-50
2022/02/04 18:10:50;;;;;;;8.70;4.15;;;;;;;;;;4963279;28;20490;-52
2022/02/04 18:13:16;;;;;;;13.38;4.10;;;;;;;;;;4995990;28;20386;-50
2022/02/04 18:15:43;;;;;;;16.27;4.18;;;;;;;;;;4957516;28;20031;-53
2022/02/04 18:18:09;;;;;;;20.67;4.75;;;;;;;;;;4961892;28;20030;-53
2022/02/04 18:20:36;;;;;;;10.23;4.00;;;;;;;;;;4959494;28;20079;-51
2022/02/04 18:23:02;;;;;;;12.85;5.18;;;;;;;;;;4961054;28;20486;-53
2022/02/04 18:25:30;;;;;;;11.20;4.40;;;;;;;;;;4964757;28;20038;-53
2022/02/04 18:27:56;;;;;;;10.93;3.03;;;;;;;;;;4963710;28;20097;-53
2022/02/04 18:30:23;;;;;;;9.52;4.13;;;;;;;;;;4962290;28;20039;-53
2022/02/04 18:32:49;;;;;;;17.90;4.68;;;;;;;;;;4964692;28;20050;-53
2022/02/04 18:35:16;;;;;;;13.18;4.10;;;;;;;;;;4962674;28;20030;-52
2022/02/04 18:37:48;;;;;;;17.67;5.20;;;;;;;;;;4965718;28;20048;-53
2022/02/04 18:45:26;;;;;;;12.60;4.25;;;;;;;;;;4970691;28;20057;-52
2022/02/04 18:48:05;;;;;;;16.27;3.08;;;;;;;;;;4999571;28;20046;-50
2022/02/04 18:53:12;;;;;;;9.02;2.70;;;;;;;;;;4966129;28;20027;-49
2022/02/04 18:56:13;;;;;;;11.02;3.92;;;;;;;;;;4965699;28;20050;-53
2022/02/04 18:58:27;;;;;;;9.63;3.97;;;;;;;;;;4970843;28;20139;-53
2022/02/04 19:00:55;;;;;;;10.23;3.80;;;;;;;;;;4966051;28;20520;-52
2022/02/04 19:03:25;;;;;;;9.95;3.80;;;;;;;;;;4964190;28;20409;-51
2022/02/04 19:08:55;;;;;;;10.07;3.70;;;;;;;;;;4960718;28;20035;-51
2022/02/04 19:11:27;;;;;;;10.18;3.90;;;;;;;;;;4964283;28;20030;-51
2022/02/04 19:14:01;;;;;;;9.70;4.32;;;;;;;;;;4961826;28;20035;-50
2022/02/04 19:19:24;;;;;;;10.75;3.53;;;;;;;;;;4960993;28;20077;-50
2022/02/04 19:24:17;;;;;;;17.33;5.57;;;;;;;;;;4964995;28;20081;-52
2022/02/04 19:26:43;;;;;;;14.38;5.20;;;;;;;;;;4966243;28;20157;-51
2022/02/04 19:29:08;;;;;;;11.75;3.97;;;;;;;;;;4965804;28;20114;-52
2022/02/04 19:31:43;;;;;;;12.27;4.38;;;;;;;;;;4967277;28;20548;-53
2022/02/04 19:34:09;;;;;;;13.80;3.85;;;;;;;;;;4962298;28;20022;-52
2022/02/04 19:36:34;;;;;;;8.82;3.40;;;;;;;;;;4955362;28;20819;-53
2022/02/04 19:39:02;;;;;;;12.75;4.18;;;;;;;;;;4962644;28;20049;-53
2022/02/04 19:41:30;;;;;;;9.90;4.35;;;;;;;;;;4963833;28;20130;-53
2022/02/04 19:43:57;;;;;;;6.85;3.28;;;;;;;;;;4959479;28;20045;-53
2022/02/04 19:46:27;;;;;;;12.70;4.03;;;;;;;;;;4964417;28;20061;-52
2022/02/04 19:48:56;;;;;;;22.65;5.45;;;;;;;;;;4962461;28;20296;-51
2022/02/04 20:25:47;;;;;;;11.35;4.70;;;;;;;;;;4957679;28;20325;-50
2022/02/04 20:28:15;;;;;;;22.95;6.82;;;;;;;;;;4959319;28;20593;-51
2022/02/04 20:30:43;;;;;;;15.88;5.03;;;;;;;;;;4964407;28;20054;-54
2022/02/04 20:33:08;;;;;;;19.73;5.13;;;;;;;;;;4962444;28;20038;-53
2022/02/04 20:35:34;;;;;;;12.80;3.83;;;;;;;;;;4958167;28;20110;-54
2022/02/04 20:38:00;;;;;;;11.98;4.03;;;;;;;;;;4960742;28;20055;-53
2022/02/04 20:40:29;;;;;;;22.70;5.43;;;;;;;;;;4955866;28;20074;-53
2022/02/04 20:42:55;;;;;;;23.15;4.22;;;;;;;;;;4964569;28;20039;-50
2022/02/04 20:45:20;;;;;;;20.55;4.95;;;;;;;;;;4959812;28;20061;-51
2022/02/04 20:47:51;;;;;;;19.60;4.68;;;;;;;;;;4959316;28;20043;-52
2022/02/04 20:50:17;;;;;;;18.92;5.32;;;;;;;;;;4959488;28;20445;-51
2022/02/04 20:52:43;;;;;;;10.57;3.22;;;;;;;;;;4958420;28;20034;-51
2022/02/04 20:55:09;;;;;;;19.25;3.72;;;;;;;;;;4964441;28;20053;-53
2022/02/04 20:57:37;;;;;;;12.68;3.20;;;;;;;;;;4957051;28;20157;-53
2022/02/04 21:00:09;;;;;;;13.88;3.28;;;;;;;;;;4963461;28;20034;-52
2022/02/04 21:02:35;;;;;;;6.22;2.75;;;;;;;;;;4955290;28;20034;-53
2022/02/04 21:05:00;;;;;;;13.73;2.42;;;;;;;;;;4964015;28;20406;-52
2022/02/04 21:07:50;;;;;;;16.70;3.60;;;;;;;;;;4959366;28;20073;-50
2022/02/04 21:15:45;;;;;;;14.35;3.03;;;;;;;;;;4966958;28;20116;-50
2022/02/04 21:18:12;;;;;;;12.13;3.88;;;;;;;;;;4962898;28;20030;-52
2022/02/04 21:20:39;;;;;;;9.52;4.03;;;;;;;;;;4967389;28;20394;-51
2022/02/04 21:23:10;;;;;;;9.05;2.95;;;;;;;;;;4960998;28;20069;-51
2022/02/04 21:25:38;;;;;;;16.02;4.30;;;;;;;;;;4963173;28;20071;-51
2022/02/04 21:28:07;;;;;;;28.95;5.22;;;;;;;;;;4958971;28;20042;-53
2022/02/04 21:30:34;;;;;;;12.27;3.83;;;;;;;;;;4964006;28;20038;-53
2022/02/04 21:33:02;;;;;;;13.98;3.63;;;;;;;;;;4964839;28;20114;-52
2022/02/04 21:38:12;;;;;;;14.05;3.35;;;;;;;;;;4960785;28;20125;-51
2022/02/04 21:40:39;;;;;;;11.70;3.10;;;;;;;;;;4964474;28;20057;-52
2022/02/04 21:43:05;;;;;;;11.82;3.67;;;;;;;;;;4956210;28;20489;-50
2022/02/04 21:45:34;;;;;;;9.20;2.50;;;;;;;;;;4957543;28;20038;-52
2022/02/04 21:48:02;;;;;;;9.77;2.83;;;;;;;;;;4957521;28;20089;-50
2022/02/04 21:50:29;;;;;;;16.38;2.95;;;;;;;;;;4961535;28;20046;-49
2022/02/04 21:52:55;;;;;;;11.68;3.05;;;;;;;;;;4963876;28;20529;-50
2022/02/04 21:55:20;;;;;;;15.15;3.53;;;;;;;;;;4961431;28;20062;-49
2022/02/04 21:57:46;;;;;;;15.98;3.25;;;;;;;;;;4963688;28;20019;-51
2022/02/04 22:00:12;;;;;;;15.15;2.95;;;;;;;;;;4961021;28;20031;-50
2022/02/04 22:02:38;;;;;;;16.90;3.08;;;;;;;;;;4964939;28;20113;-51
2022/02/04 22:05:05;;;;;;;12.57;2.95;;;;;;;;;;4964942;28;20098;-52
2022/02/04 22:07:50;;;;;;;11.80;3.45;;;;;;;;;;4958281;28;20059;-52
2022/02/04 22:13:08;;;;;;;9.20;2.15;;;;;;;;;;4960966;28;20023;-50
2022/02/04 22:23:35;;;;;;;7.10;2.67;;;;;;;;;;4964384;28;20752;-53